Arpin, Wisconsin
Current Conditions -  °F | °C
As of 3:54 AM on Monday 22 Dec 2014 (Local Time) from KMFI Reporting Station
Haze Haze  
Wind Chill: 26°   Ceiling: 700
Heat Index: 34°   Visibility: 4mi
Dew Point: 31°   Wind: 10mph
Humidity: 89%   Direction: 160°SSE
Pressure: 29.82"   Gusts: NA
Location:  44.54°N, 90.04°W
Report Text: KMFI 220954Z AUTO 16009KT 4SM BR OVC007 01/M01 A2982 RMK AO2 SLP113 T00111006
Loading
Personal Weather Stations






























Interactive Weather Map New forecast layout! Learn more

10-Day Weather Forecast

Advertisements
Track Severe Weather on mobile